Terminal Aerodrome Forecast
Issued by NWS Wilmington, OH

Current Version | Previous Version | Graphics & Text | Print | Product List | Glossary On
Versions: 1 2 3 4 5 6 7 8 9 10 11 12 13
403
FTUS41 KILN 202333
TAFDAY
TAF
KDAY 202333Z 2100/2124 06005KT P6SM SCT250
     FM211500 08005KT P6SM BKN180=

USA.gov is the U.S. government's official web portal to all federal, state and local government web resources and services.